Time;durP1;ratioP1;P1;durP2;ratioP2;P2;SDS_P1;SDS_P2;PMS_P1;PMS_P2;Temp;Humidity;BMP_temperature;BMP_pressure;BME280_temperature;BME280_humidity;BME280_pressure;Samples;Min_cycle;Max_cycle;Signal;HPM_P1;HPM_P2
2021/04/06 00:00:48;;;;;;;22.77;4.00;;;1.60;89.20;;;;;;5113632;28;20051;-36
2021/04/06 00:03:19;;;;;;;7.97;2.40;;;1.60;88.90;;;;;;5114595;28;20062;-37
2021/04/06 00:05:54;;;;;;;10.93;2.97;;;1.50;88.90;;;;;;5114752;28;20069;-36
2021/04/06 00:08:20;;;;;;;6.00;1.13;;;1.70;88.70;;;;;;5114896;28;20046;-36
2021/04/06 00:10:49;;;;;;;7.95;1.77;;;1.70;88.30;;;;;;5114483;28;20099;-36
2021/04/06 00:13:16;;;;;;;3.55;1.50;;;1.70;88.20;;;;;;5113375;28;20081;-36
2021/04/06 00:15:44;;;;;;;7.40;2.97;;;1.60;88.50;;;;;;5114338;28;20030;-36
2021/04/06 00:18:12;;;;;;;7.88;1.63;;;1.70;88.10;;;;;;5114094;28;20031;-36
2021/04/06 00:20:39;;;;;;;12.35;3.10;;;1.70;87.80;;;;;;5114193;28;20076;-36
2021/04/06 00:23:07;;;;;;;6.32;2.33;;;1.70;87.90;;;;;;5113861;28;20023;-36
2021/04/06 00:25:36;;;;;;;6.82;1.45;;;1.80;87.50;;;;;;5114076;28;20028;-36
2021/04/06 00:28:06;;;;;;;10.77;1.95;;;1.80;87.90;;;;;;5113798;28;20035;-36
2021/04/06 00:30:34;;;;;;;11.07;3.70;;;1.80;87.80;;;;;;5113851;28;20032;-36
2021/04/06 00:33:20;;;;;;;14.25;2.08;;;1.70;88.10;;;;;;5113947;28;20043;-36
2021/04/06 00:36:06;;;;;;;7.10;1.92;;;1.70;87.70;;;;;;5114213;28;20024;-36
2021/04/06 00:38:38;;;;;;;5.45;1.70;;;1.70;87.70;;;;;;5114028;27;20031;-36
2021/04/06 00:41:08;;;;;;;10.43;1.63;;;1.70;88.10;;;;;;5113752;28;20019;-36
2021/04/06 00:43:41;;;;;;;5.70;1.52;;;1.80;87.80;;;;;;5114113;28;20490;-36
2021/04/06 00:46:12;;;;;;;6.15;1.35;;;1.70;87.90;;;;;;5113870;28;20035;-37
2021/04/06 00:48:43;;;;;;;10.50;1.58;;;1.80;87.90;;;;;;5114121;28;20519;-37
2021/04/06 00:51:11;;;;;;;7.25;1.85;;;1.70;88.00;;;;;;5114601;28;20043;-37
2021/04/06 00:53:55;;;;;;;6.18;1.20;;;1.70;88.60;;;;;;5113729;28;20024;-37
2021/04/06 00:56:38;;;;;;;3.53;1.05;;;1.60;88.20;;;;;;5112246;28;20502;-36
2021/04/06 00:59:07;;;;;;;8.48;2.28;;;1.70;88.20;;;;;;5113562;28;20020;-37
2021/04/06 01:01:39;;;;;;;7.20;1.35;;;1.60;87.80;;;;;;5112184;28;20028;-36
2021/04/06 01:04:10;;;;;;;12.82;1.30;;;1.70;87.50;;;;;;5112022;28;20030;-36
2021/04/06 01:06:56;;;;;;;2.95;1.40;;;1.70;86.80;;;;;;5113338;28;20023;-36
2021/04/06 01:09:39;;;;;;;5.03;1.45;;;1.70;87.10;;;;;;5111988;28;20028;-36
2021/04/06 01:12:06;;;;;;;5.90;1.15;;;1.70;87.10;;;;;;5113443;28;20539;-36
2021/04/06 01:14:37;;;;;;;5.85;0.70;;;1.70;87.40;;;;;;5113144;28;20027;-36
2021/04/06 01:17:05;;;;;;;4.85;1.17;;;1.60;87.30;;;;;;5113736;27;20447;-36
2021/04/06 01:19:31;;;;;;;7.13;1.23;;;1.60;87.70;;;;;;5111892;28;20089;-36
2021/04/06 01:21:58;;;;;;;4.13;1.20;;;1.70;87.60;;;;;;5113116;28;20024;-36
2021/04/06 01:24:27;;;;;;;3.80;2.08;;;1.70;87.40;;;;;;5117118;28;20040;-36
2021/04/06 01:26:52;;;;;;;6.88;2.10;;;1.70;87.30;;;;;;5115527;28;20502;-37
2021/04/06 01:29:18;;;;;;;5.35;1.15;;;1.70;87.60;;;;;;5116061;28;20023;-36
2021/04/06 01:31:45;;;;;;;7.38;1.15;;;1.80;87.50;;;;;;5116124;28;20533;-36
2021/04/06 01:34:12;;;;;;;6.28;1.17;;;1.80;87.30;;;;;;5117153;28;20030;-36
2021/04/06 01:36:37;;;;;;;8.23;2.33;;;1.70;87.30;;;;;;5115804;28;20510;-36
2021/04/06 01:39:04;;;;;;;11.07;2.38;;;1.60;87.80;;;;;;5117229;28;20032;-36
2021/04/06 01:41:30;;;;;;;6.47;1.33;;;1.70;87.80;;;;;;5116949;28;20020;-36
2021/04/06 01:43:56;;;;;;;5.47;1.30;;;1.90;87.70;;;;;;5116868;27;20468;-36
2021/04/06 01:46:40;;;;;;;7.90;1.65;;;2.00;87.00;;;;;;5116333;28;20038;-37
2021/04/06 01:49:06;;;;;;;10.85;1.52;;;1.80;86.70;;;;;;5116520;28;20055;-36
2021/04/06 01:51:32;;;;;;;6.28;2.35;;;1.80;87.20;;;;;;5117077;28;20032;-37
2021/04/06 01:54:02;;;;;;;15.15;2.67;;;1.60;87.90;;;;;;5116766;28;20027;-36
2021/04/06 01:56:29;;;;;;;8.95;2.60;;;1.70;88.10;;;;;;5116571;28;20030;-39
2021/04/06 01:59:00;;;;;;;7.35;1.40;;;1.60;88.10;;;;;;5117192;28;20019;-39
2021/04/06 02:01:27;;;;;;;7.13;1.63;;;1.60;88.40;;;;;;5115319;28;20387;-37
2021/04/06 02:04:05;;;;;;;5.63;1.58;;;1.70;88.40;;;;;;5116547;28;20016;-36
2021/04/06 02:06:34;;;;;;;6.03;1.50;;;1.60;88.30;;;;;;5116953;27;20028;-37
2021/04/06 02:09:00;;;;;;;4.70;1.33;;;1.60;88.60;;;;;;5116384;28;20024;-36
2021/04/06 02:11:28;;;;;;;4.68;1.63;;;1.60;88.30;;;;;;5115215;28;20532;-35
2021/04/06 02:14:09;;;;;;;3.42;1.38;;;1.50;88.60;;;;;;5116280;28;20072;-35
2021/04/06 02:16:54;;;;;;;6.40;1.63;;;1.50;88.90;;;;;;5116287;28;20103;-35
2021/04/06 02:19:24;;;;;;;11.43;2.53;;;1.50;88.70;;;;;;5116258;28;20020;-35
2021/04/06 02:21:55;;;;;;;9.15;1.85;;;1.50;88.70;;;;;;5116642;28;20022;-36
2021/04/06 02:24:34;;;;;;;8.32;1.45;;;1.60;88.40;;;;;;5116506;28;20049;-36
2021/04/06 02:27:16;;;;;;;8.88;2.47;;;1.50;88.20;;;;;;5115956;28;20032;-36
2021/04/06 02:29:48;;;;;;;10.23;1.63;;;1.60;88.30;;;;;;5116453;28;20039;-36
2021/04/06 02:32:16;;;;;;;9.85;1.95;;;1.50;88.30;;;;;;5114720;28;20051;-36
2021/04/06 02:34:47;;;;;;;10.95;2.72;;;1.40;89.00;;;;;;5115789;28;20529;-36
2021/04/06 02:37:22;;;;;;;7.15;2.88;;;1.30;89.30;;;;;;5116005;28;20031;-36
2021/04/06 02:39:53;;;;;;;7.88;2.08;;;1.30;89.50;;;;;;5115736;28;20019;-36
2021/04/06 02:42:19;;;;;;;15.40;2.65;;;1.30;89.80;;;;;;5115725;27;20023;-36
2021/04/06 02:44:44;;;;;;;12.60;3.95;;;1.30;90.10;;;;;;5115679;28;20020;-35
2021/04/06 02:47:10;;;;;;;6.63;2.90;;;1.40;89.60;;;;;;5115719;28;20028;-35
2021/04/06 02:49:36;;;;;;;14.75;3.67;;;1.50;89.00;;;;;;5115701;28;20052;-35
2021/04/06 02:52:03;;;;;;;15.00;5.90;;;1.60;88.70;;;;;;5115881;28;20102;-35
2021/04/06 02:54:29;;;;;;;16.67;6.63;;;1.70;88.70;;;;;;5116096;28;20020;-35
2021/04/06 02:56:54;;;;;;;18.98;6.38;;;1.70;88.70;;;;;;5115503;28;20076;-36
2021/04/06 02:59:21;;;;;;;16.95;5.38;;;1.80;88.50;;;;;;5115494;28;20023;-36
2021/04/06 03:01:48;;;;;;;12.15;5.05;;;1.70;88.40;;;;;;5115351;28;20038;-36
2021/04/06 03:04:22;;;;;;;14.30;5.78;;;1.70;88.80;;;;;;5115554;28;20020;-36
2021/04/06 03:06:55;;;;;;;16.60;5.53;;;1.70;88.60;;;;;;5115772;28;20024;-36
2021/04/06 03:09:23;;;;;;;20.33;4.82;;;1.70;89.00;;;;;;5115764;28;20280;-36
2021/04/06 03:11:55;;;;;;;16.52;4.07;;;1.70;88.50;;;;;;5116139;28;20452;-36
2021/04/06 03:14:22;;;;;;;23.98;5.80;;;1.80;88.30;;;;;;5115327;28;20103;-37
2021/04/06 03:16:50;;;;;;;13.43;3.38;;;1.70;88.80;;;;;;5115422;28;20035;-37
2021/04/06 03:19:17;;;;;;;9.25;2.72;;;1.50;89.30;;;;;;5115193;28;20493;-36
2021/04/06 03:21:43;;;;;;;18.98;3.42;;;1.50;89.30;;;;;;5114323;28;20364;-38
2021/04/06 03:24:09;;;;;;;21.02;4.30;;;1.50;89.50;;;;;;5113731;28;20023;-37
2021/04/06 03:26:35;;;;;;;11.10;2.33;;;1.40;89.80;;;;;;5115119;28;20024;-37
2021/04/06 03:29:02;;;;;;;13.10;2.45;;;1.40;89.70;;;;;;5116145;28;20039;-37
2021/04/06 03:31:33;;;;;;;11.25;2.42;;;1.30;90.10;;;;;;5115204;28;20068;-36
2021/04/06 03:34:01;;;;;;;25.63;4.72;;;1.30;89.80;;;;;;5113776;28;20030;-36
2021/04/06 03:36:28;;;;;;;17.60;3.83;;;1.30;89.50;;;;;;5114967;28;20115;-37
2021/04/06 03:38:57;;;;;;;19.02;3.78;;;1.30;89.70;;;;;;5114860;28;20022;-38
2021/04/06 03:41:24;;;;;;;15.18;2.60;;;1.30;89.60;;;;;;5114910;28;20580;-35
2021/04/06 03:43:51;;;;;;;24.83;4.25;;;1.40;89.70;;;;;;5114511;28;20111;-35
2021/04/06 03:46:25;;;;;;;19.95;4.75;;;1.50;89.10;;;;;;5114286;28;20474;-35
2021/04/06 03:48:51;;;;;;;15.27;3.63;;;1.40;89.40;;;;;;5114207;28;20065;-35
2021/04/06 03:51:25;;;;;;;11.88;3.15;;;1.40;89.30;;;;;;5114697;28;20094;-35
2021/04/06 03:53:51;;;;;;;16.98;3.67;;;1.30;89.90;;;;;;5114639;28;20016;-35
2021/04/06 03:56:17;;;;;;;14.68;3.33;;;1.20;90.20;;;;;;5114466;28;20521;-35
2021/04/06 04:01:10;;;;;;;10.13;2.38;;;1.10;90.80;;;;;;5115274;28;20035;-36
2021/04/06 04:03:36;;;;;;;14.82;2.85;;;1.00;91.20;;;;;;5114193;28;20106;-35
2021/04/06 04:06:02;;;;;;;8.30;2.10;;;0.80;91.70;;;;;;5112968;28;20106;-35
2021/04/06 04:08:28;;;;;;;17.10;3.17;;;0.80;91.80;;;;;;5114076;28;20380;-35
2021/04/06 04:10:53;;;;;;;8.93;3.25;;;0.80;92.00;;;;;;5114035;28;20020;-35
2021/04/06 04:13:19;;;;;;;13.18;2.40;;;0.90;91.60;;;;;;5114049;28;20131;-35
2021/04/06 04:15:45;;;;;;;16.13;4.05;;;1.00;91.30;;;;;;5114002;28;20031;-35
2021/04/06 04:18:11;;;;;;;12.23;2.88;;;0.90;91.20;;;;;;5113915;28;20107;-35
2021/04/06 04:20:37;;;;;;;12.60;2.63;;;1.00;90.80;;;;;;5114444;28;20090;-35
2021/04/06 04:23:03;;;;;;;8.73;2.15;;;1.00;90.20;;;;;;5113840;28;20028;-35
2021/04/06 04:25:28;;;;;;;17.20;4.50;;;1.10;90.00;;;;;;5113842;28;20494;-35
2021/04/06 04:27:54;;;;;;;15.63;2.92;;;1.20;89.50;;;;;;5113751;28;20020;-35
2021/04/06 04:30:37;;;;;;;9.88;3.35;;;1.10;89.80;;;;;;5112486;28;20454;-35
2021/04/06 04:33:05;;;;;;;11.13;3.25;;;1.00;90.00;;;;;;5113833;28;20026;-35
2021/04/06 04:35:31;;;;;;;14.90;5.35;;;1.10;90.20;;;;;;5113780;28;20028;-35
2021/04/06 04:37:56;;;;;;;14.30;3.35;;;1.10;89.60;;;;;;5113855;28;20031;-35
2021/04/06 04:40:22;;;;;;;9.88;2.67;;;1.10;89.40;;;;;;5113593;28;20023;-35
2021/04/06 04:42:51;;;;;;;12.63;2.30;;;1.20;89.00;;;;;;5113541;28;20063;-35
2021/04/06 04:45:17;;;;;;;10.73;3.22;;;1.20;88.60;;;;;;5112235;28;20016;-35
2021/04/06 04:47:42;;;;;;;13.23;3.17;;;1.20;88.50;;;;;;5113634;28;20020;-35
2021/04/06 04:50:09;;;;;;;8.75;2.22;;;1.20;88.10;;;;;;5113650;28;20398;-35
2021/04/06 04:52:35;;;;;;;23.98;4.65;;;1.10;88.20;;;;;;5112287;28;20084;-35
2021/04/06 04:55:00;;;;;;;7.13;3.47;;;1.10;88.50;;;;;;5113523;28;20032;-35
2021/04/06 04:57:26;;;;;;;11.23;1.90;;;1.10;88.40;;;;;;5114627;28;20464;-35
2021/04/06 04:59:52;;;;;;;6.45;1.35;;;1.10;88.60;;;;;;5117963;28;20050;-35
2021/04/06 05:02:17;;;;;;;10.63;2.30;;;0.90;89.70;;;;;;5117644;28;20023;-35
2021/04/06 05:04:43;;;;;;;11.23;2.33;;;0.80;90.80;;;;;;5117914;28;20040;-35
2021/04/06 05:07:08;;;;;;;7.07;1.70;;;0.70;91.60;;;;;;5117872;28;20032;-36
2021/04/06 05:09:34;;;;;;;10.90;1.92;;;0.60;91.90;;;;;;5117299;28;20035;-36
2021/04/06 05:12:00;;;;;;;6.90;2.45;;;0.70;91.80;;;;;;5117259;28;20023;-36
2021/04/06 05:14:25;;;;;;;10.18;1.85;;;0.60;91.60;;;;;;5117443;28;20102;-36
2021/04/06 05:16:51;;;;;;;11.23;1.80;;;0.70;91.50;;;;;;5117316;27;20054;-36
2021/04/06 05:19:16;;;;;;;13.27;3.78;;;0.80;91.00;;;;;;5117297;28;20468;-36
2021/04/06 05:21:42;;;;;;;15.57;2.17;;;0.80;90.90;;;;;;5117287;28;20098;-36
2021/04/06 05:24:09;;;;;;;6.47;2.05;;;0.80;90.60;;;;;;5116028;28;20027;-36
2021/04/06 05:26:34;;;;;;;14.90;3.00;;;0.80;90.30;;;;;;5117131;28;20026;-36
2021/04/06 05:29:00;;;;;;;15.93;4.95;;;0.70;90.80;;;;;;5115921;28;20387;-36
2021/04/06 05:31:25;;;;;;;8.60;2.50;;;0.60;91.40;;;;;;5117302;28;20067;-36
2021/04/06 05:33:54;;;;;;;8.45;2.15;;;0.60;91.60;;;;;;5117147;28;20130;-36
2021/04/06 05:36:20;;;;;;;5.35;2.17;;;0.70;91.40;;;;;;5117183;27;20024;-36
2021/04/06 05:38:45;;;;;;;10.18;1.50;;;0.60;91.50;;;;;;5117033;27;20024;-36
2021/04/06 05:41:12;;;;;;;12.45;1.80;;;0.60;91.40;;;;;;5117243;28;20019;-36
2021/04/06 05:43:40;;;;;;;7.40;2.15;;;0.60;91.10;;;;;;5115499;28;20035;-36
2021/04/06 05:46:09;;;;;;;13.85;2.28;;;0.60;91.10;;;;;;5120805;28;20028;-36
2021/04/06 05:48:36;;;;;;;11.70;2.78;;;0.60;90.80;;;;;;5115211;28;20447;-36
2021/04/06 05:51:01;;;;;;;11.23;2.78;;;0.60;90.80;;;;;;5115407;28;20019;-36
2021/04/06 05:53:27;;;;;;;13.68;3.55;;;0.60;90.80;;;;;;5116998;28;20022;-36
2021/04/06 05:55:53;;;;;;;15.13;5.07;;;0.70;91.10;;;;;;5117055;28;20514;-36
2021/04/06 05:58:18;;;;;;;14.45;5.03;;;0.80;90.70;;;;;;5116529;28;20134;-36
2021/04/06 06:00:44;;;;;;;15.63;6.60;;;0.80;90.50;;;;;;5116572;28;20413;-36
2021/04/06 06:03:10;;;;;;;8.00;3.13;;;1.00;90.30;;;;;;5116224;28;20024;-37
2021/04/06 06:05:37;;;;;;;11.02;2.55;;;1.10;90.10;;;;;;5116350;28;20402;-37
2021/04/06 06:08:07;;;;;;;9.45;2.40;;;1.20;89.40;;;;;;5114261;28;20051;-36
2021/04/06 06:10:34;;;;;;;15.38;3.42;;;1.30;88.80;;;;;;5116057;28;20540;-36
2021/04/06 06:13:21;;;;;;;7.00;3.10;;;1.40;88.90;;;;;;5116325;28;20062;-36
2021/04/06 06:16:23;;;;;;;17.85;2.58;;;1.50;88.50;;;;;;5114876;28;20019;-36
2021/04/06 06:19:00;;;;;;;12.70;3.20;;;1.50;88.30;;;;;;5116492;28;20065;-36
2021/04/06 06:21:55;;;;;;;13.82;2.70;;;1.50;88.60;;;;;;5116472;28;20077;-36
2021/04/06 06:24:21;;;;;;;19.38;3.53;;;1.50;89.00;;;;;;5106784;28;20035;-36
2021/04/06 06:26:47;;;;;;;7.45;2.50;;;1.40;88.30;;;;;;5115778;28;20106;-36
2021/04/06 06:29:17;;;;;;;11.23;2.75;;;1.30;88.80;;;;;;5115945;28;20023;-36
2021/04/06 06:31:57;;;;;;;14.65;3.83;;;1.40;88.60;;;;;;5115888;27;20027;-36
2021/04/06 06:34:37;;;;;;;18.83;3.38;;;1.30;88.10;;;;;;5116407;28;20030;-36
2021/04/06 06:37:12;;;;;;;12.70;4.07;;;1.40;88.20;;;;;;5116024;28;20028;-36
2021/04/06 06:40:03;;;;;;;13.40;3.63;;;1.30;88.70;;;;;;5115693;28;20015;-36
2021/04/06 06:42:34;;;;;;;12.23;3.90;;;1.40;88.40;;;;;;5110756;28;20115;-36
2021/04/06 06:45:00;;;;;;;11.95;4.07;;;1.40;88.10;;;;;;5115372;28;20379;-36
2021/04/06 06:47:27;;;;;;;8.27;2.50;;;1.40;86.60;;;;;;5115425;28;20038;-35
2021/04/06 06:49:55;;;;;;;3.65;1.95;;;1.60;84.60;;;;;;5115262;28;20539;-35
2021/04/06 06:52:26;;;;;;;4.28;1.77;;;1.70;83.60;;;;;;5115147;28;20019;-36
2021/04/06 06:54:57;;;;;;;8.98;4.30;;;1.60;84.40;;;;;;5115360;28;20028;-36
2021/04/06 06:57:40;;;;;;;11.10;2.15;;;1.60;85.30;;;;;;5114118;28;20038;-36
2021/04/06 07:00:12;;;;;;;10.85;4.15;;;1.50;85.80;;;;;;5115545;28;20020;-36
2021/04/06 07:02:38;;;;;;;5.07;2.40;;;1.30;86.60;;;;;;5115114;28;20023;-36
2021/04/06 07:05:12;;;;;;;7.78;2.10;;;1.30;87.00;;;;;;5115343;28;20028;-36
2021/04/06 07:07:55;;;;;;;10.57;3.42;;;1.50;86.20;;;;;;5114901;28;20443;-35
2021/04/06 07:10:27;;;;;;;10.38;3.92;;;1.60;86.20;;;;;;5114980;28;20023;-36
2021/04/06 07:12:58;;;;;;;9.68;3.83;;;1.80;86.30;;;;;;5115208;28;20405;-36
2021/04/06 07:15:26;;;;;;;7.80;3.28;;;1.60;86.40;;;;;;5115193;28;20024;-36
2021/04/06 07:18:03;;;;;;;6.07;3.47;;;1.80;86.30;;;;;;5114698;27;20084;-36
2021/04/06 07:20:32;;;;;;;14.15;5.20;;;1.80;85.70;;;;;;5114262;28;20043;-36
2021/04/06 07:22:59;;;;;;;9.30;4.03;;;1.70;86.30;;;;;;5114845;28;20048;-37
2021/04/06 07:25:25;;;;;;;7.93;4.32;;;2.00;86.40;;;;;;5114497;28;20031;-37
2021/04/06 07:27:52;;;;;;;11.07;4.25;;;2.00;86.10;;;;;;5115000;28;20028;-37
2021/04/06 07:30:18;;;;;;;8.75;4.78;;;1.90;87.20;;;;;;5114826;28;20497;-36
2021/04/06 07:32:45;;;;;;;14.48;5.47;;;1.80;87.30;;;;;;5113332;28;20356;-36
2021/04/06 07:35:11;;;;;;;11.13;6.63;;;2.00;86.80;;;;;;5114599;27;20024;-36
2021/04/06 07:37:41;;;;;;;11.13;5.07;;;2.00;86.90;;;;;;5114426;28;20102;-37
2021/04/06 07:40:10;;;;;;;11.43;5.18;;;2.10;87.10;;;;;;5113291;28;20047;-37
2021/04/06 07:42:42;;;;;;;15.88;6.85;;;2.10;86.30;;;;;;5114482;28;20020;-36
2021/04/06 07:45:28;;;;;;;17.45;6.13;;;2.40;85.30;;;;;;5114979;28;20020;-36
2021/04/06 07:47:54;;;;;;;16.10;7.57;;;2.70;83.20;;;;;;5106625;28;20051;-36
2021/04/06 07:50:33;;;;;;;13.65;6.63;;;2.40;84.40;;;;;;5113923;28;20048;-37
2021/04/06 07:53:19;;;;;;;12.80;5.63;;;2.30;84.30;;;;;;5114162;28;20479;-36
2021/04/06 07:55:44;;;;;;;15.70;6.95;;;2.60;84.40;;;;;;5112254;28;20031;-36
2021/04/06 07:58:10;;;;;;;17.58;9.82;;;2.70;84.10;;;;;;5113193;28;20030;-37
2021/04/06 08:00:49;;;;;;;14.10;5.93;;;2.80;84.00;;;;;;5113664;28;20527;-36
2021/04/06 08:03:50;;;;;;;10.45;4.75;;;2.60;84.30;;;;;;5113745;28;20396;-36
2021/04/06 08:06:19;;;;;;;;;;;2.60;83.60;;;;;;5071094;28;20032;-36
2021/04/06 08:08:45;;;;;;;12.63;5.40;;;2.80;83.40;;;;;;5105788;28;19903;-36
2021/04/06 08:11:11;;;;;;;10.93;5.88;;;2.40;84.20;;;;;;5113930;28;20497;-36
2021/04/06 08:13:38;;;;;;;18.58;5.68;;;2.50;84.50;;;;;;5113680;28;20088;-36
2021/04/06 08:16:18;;;;;;;21.17;6.03;;;2.40;84.80;;;;;;5095775;28;20429;-37
2021/04/06 08:18:54;;;;;;;13.05;4.38;;;2.50;84.60;;;;;;5113607;28;20024;-37
2021/04/06 08:21:21;;;;;;;17.63;3.75;;;2.50;83.40;;;;;;5112182;28;20024;-37
2021/04/06 08:23:47;;;;;;;15.75;4.72;;;2.50;83.00;;;;;;5113402;28;20463;-36
2021/04/06 08:26:34;;;;;;;10.80;3.22;;;2.70;83.10;;;;;;5113296;28;20043;-37
2021/04/06 08:29:24;;;;;;;17.05;4.00;;;2.80;82.60;;;;;;5113808;28;20521;-37
2021/04/06 08:32:25;;;;;;;16.40;4.57;;;2.70;82.40;;;;;;5113017;28;20015;-47
2021/04/06 08:34:52;;;;;;;14.07;4.25;;;3.00;81.20;;;;;;5070712;28;20039;-38
2021/04/06 08:37:39;;;;;;;14.95;4.22;;;3.20;80.30;;;;;;5104898;28;20191;-37
2021/04/06 08:40:07;;;;;;;11.52;4.80;;;3.30;79.90;;;;;;5113450;28;20051;-36
2021/04/06 08:42:34;;;;;;;17.15;3.08;;;3.50;80.40;;;;;;5113694;28;20023;-36
2021/04/06 08:45:01;;;;;;;10.30;2.58;;;3.60;80.00;;;;;;5113166;28;20030;-37
2021/04/06 08:47:38;;;;;;;18.27;3.38;;;3.50;79.80;;;;;;5111954;28;20028;-36
2021/04/06 08:50:08;;;;;;;15.60;3.20;;;3.50;79.60;;;;;;5113075;28;20122;-36
2021/04/06 08:52:33;;;;;;;9.30;2.80;;;3.40;78.80;;;;;;5113181;28;20020;-37
2021/04/06 08:55:13;;;;;;;7.20;3.67;;;3.60;78.80;;;;;;5113157;28;20387;-37
2021/04/06 08:57:39;;;;;;;16.23;2.67;;;3.80;75.80;;;;;;5113494;28;20023;-37
2021/04/06 09:00:13;;;;;;;11.13;2.80;;;3.50;77.40;;;;;;5113258;28;20084;-37
2021/04/06 09:02:40;;;;;;;13.70;3.22;;;3.50;78.00;;;;;;5113279;28;20032;-36
2021/04/06 09:05:06;;;;;;;6.78;3.40;;;3.30;78.30;;;;;;5113489;28;20023;-37
2021/04/06 09:07:38;;;;;;;5.40;2.70;;;3.10;79.70;;;;;;5113169;28;20033;-37
2021/04/06 09:10:12;;;;;;;15.43;3.22;;;2.50;81.80;;;;;;5113258;28;20042;-36
2021/04/06 09:12:41;;;;;;;9.55;3.08;;;2.50;83.80;;;;;;5112174;28;20031;-36
2021/04/06 09:15:09;;;;;;;3.63;2.45;;;2.60;83.30;;;;;;5113285;28;20099;-37
2021/04/06 09:17:36;;;;;;;3.42;1.55;;;3.80;81.20;;;;;;5112523;28;20020;-39
2021/04/06 09:20:14;;;;;;;7.45;2.92;;;4.60;77.60;;;;;;5113584;28;20031;-37
2021/04/06 09:22:41;;;;;;;7.05;1.73;;;4.90;74.50;;;;;;5111661;28;20050;-37
2021/04/06 09:25:20;;;;;;;5.25;3.17;;;5.00;74.10;;;;;;5113127;28;20493;-37
2021/04/06 09:27:57;;;;;;;8.95;1.77;;;5.70;72.50;;;;;;5112782;28;20102;-38
2021/04/06 09:30:43;;;;;;;9.13;2.15;;;5.70;71.70;;;;;;5113139;28;20027;-37
2021/04/06 09:33:12;;;;;;;6.80;1.88;;;5.90;68.00;;;;;;5111746;28;20058;-36
2021/04/06 09:35:38;;;;;;;4.97;1.55;;;4.80;69.90;;;;;;5113038;28;20379;-36
2021/04/06 09:38:05;;;;;;;6.43;2.35;;;4.30;68.50;;;;;;5113364;28;20019;-37
2021/04/06 09:40:36;;;;;;;5.25;1.42;;;4.70;68.00;;;;;;5112707;28;20051;-37
2021/04/06 09:43:03;;;;;;;7.00;2.67;;;5.30;67.30;;;;;;5113641;28;20083;-36
2021/04/06 09:45:29;;;;;;;6.90;2.17;;;5.00;66.80;;;;;;5116794;28;20320;-37
2021/04/06 09:47:55;;;;;;;9.52;1.83;;;5.30;65.60;;;;;;5116593;28;20028;-37
2021/04/06 09:50:22;;;;;;;9.02;2.00;;;5.10;66.80;;;;;;5116662;28;20051;-37
2021/04/06 09:52:48;;;;;;;10.88;1.90;;;5.80;65.20;;;;;;5116189;27;20463;-37
2021/04/06 09:55:15;;;;;;;8.52;2.78;;;6.30;60.60;;;;;;5115963;28;20416;-36
2021/04/06 09:57:43;;;;;;;8.70;2.00;;;5.70;59.80;;;;;;5115834;28;20030;-37
2021/04/06 10:00:16;;;;;;;4.68;2.05;;;5.70;61.50;;;;;;5116658;28;20024;-36
2021/04/06 10:02:43;;;;;;;6.60;1.35;;;5.50;61.20;;;;;;5116248;27;20051;-37
2021/04/06 10:05:19;;;;;;;7.65;1.35;;;5.10;59.50;;;;;;5116680;27;20020;-36
2021/04/06 10:07:47;;;;;;;5.57;1.83;;;5.30;59.90;;;;;;5115990;28;20407;-38
2021/04/06 10:10:26;;;;;;;2.85;1.15;;;5.50;59.10;;;;;;5116488;28;20520;-38
2021/04/06 10:12:53;;;;;;;4.55;1.50;;;6.90;57.80;;;;;;5116008;28;20103;-37
2021/04/06 10:15:24;;;;;;;5.75;1.23;;;7.30;55.70;;;;;;5116134;28;20024;-38
2021/04/06 10:17:51;;;;;;;6.68;1.92;;;6.60;55.20;;;;;;5115613;28;20024;-37
2021/04/06 10:20:26;;;;;;;4.63;0.95;;;5.50;58.70;;;;;;5115850;28;20107;-37
2021/04/06 10:22:56;;;;;;;6.43;1.45;;;5.80;58.50;;;;;;5115904;27;20027;-36
2021/04/06 10:25:33;;;;;;;11.93;1.40;;;5.80;59.80;;;;;;5115946;28;20055;-37
2021/04/06 10:28:02;;;;;;;7.53;1.88;;;5.40;59.20;;;;;;5115544;28;20049;-37
2021/04/06 10:30:36;;;;;;;15.05;2.42;;;5.10;60.60;;;;;;5114259;28;20387;-36
2021/04/06 10:33:06;;;;;;;9.63;2.20;;;5.20;60.70;;;;;;5115933;28;20035;-38
2021/04/06 10:35:34;;;;;;;8.63;2.22;;;5.60;58.90;;;;;;5115608;28;20069;-36
2021/04/06 10:38:04;;;;;;;4.57;1.20;;;6.70;55.70;;;;;;5115733;28;20427;-37
2021/04/06 10:40:34;;;;;;;5.18;1.92;;;6.40;55.00;;;;;;5115378;28;20019;-38
2021/04/06 10:43:12;;;;;;;1.08;0.95;;;5.50;58.20;;;;;;5115456;27;20111;-37
2021/04/06 10:45:41;;;;;;;4.53;1.70;;;5.00;61.80;;;;;;5116104;28;20020;-37
2021/04/06 10:48:12;;;;;;;4.68;1.05;;;4.40;67.00;;;;;;5115435;28;20106;-36
2021/04/06 10:50:48;;;;;;;;;;;3.60;73.40;;;;;;5115629;28;20384;-36
2021/04/06 10:53:27;;;;;;;7.63;1.35;;;3.90;74.80;;;;;;5115677;28;19910;-37
2021/04/06 10:56:13;;;;;;;4.60;1.23;;;5.70;67.90;;;;;;5112695;28;20067;-37
2021/04/06 10:58:46;;;;;;;7.05;2.80;;;6.30;62.70;;;;;;5115852;28;20498;-38
2021/04/06 11:01:18;;;;;;;3.33;1.27;;;6.50;58.10;;;;;;5115618;28;20020;-38
2021/04/06 11:03:50;;;;;;;5.13;1.15;;;6.90;55.90;;;;;;5114388;28;20027;-37
2021/04/06 11:06:33;;;;;;;1.85;0.90;;;6.30;54.90;;;;;;5116262;27;20055;-37
2021/04/06 11:09:02;;;;;;;3.50;1.00;;;7.00;55.20;;;;;;5115627;28;20024;-39
2021/04/06 11:11:32;;;;;;;4.63;1.77;;;8.40;50.20;;;;;;5113944;28;20475;-38
2021/04/06 11:14:04;;;;;;;2.92;1.25;;;7.50;49.80;;;;;;5114053;28;20019;-47
2021/04/06 11:16:30;;;;;;;4.78;1.05;;;6.80;49.80;;;;;;5114789;28;20062;-38
2021/04/06 11:19:05;;;;;;;6.60;1.23;;;6.60;50.70;;;;;;5115094;28;20015;-38
2021/04/06 11:21:33;;;;;;;4.85;1.38;;;6.00;50.70;;;;;;5113858;28;20024;-37
2021/04/06 11:23:59;;;;;;;7.25;2.75;;;6.80;49.30;;;;;;5115166;28;20076;-38
2021/04/06 11:26:26;;;;;;;11.30;1.90;;;6.40;49.00;;;;;;5115104;28;20016;-37
2021/04/06 11:28:51;;;;;;;8.70;3.25;;;6.10;50.70;;;;;;5114041;28;20218;-38
2021/04/06 11:31:17;;;;;;;3.10;1.40;;;6.10;51.70;;;;;;5114627;28;20476;-37
2021/04/06 11:33:43;;;;;;;2.20;0.95;;;6.10;52.90;;;;;;5115284;27;20051;-37
2021/04/06 11:36:10;;;;;;;7.90;1.05;;;5.60;52.70;;;;;;5115375;28;20028;-38
2021/04/06 11:38:39;;;;;;;3.50;1.38;;;5.40;53.50;;;;;;5116349;28;20077;-37
2021/04/06 11:41:08;;;;;;;1.80;1.50;;;5.40;54.40;;;;;;5114070;28;20115;-39
2021/04/06 11:43:33;;;;;;;3.17;1.00;;;5.10;56.40;;;;;;5114765;28;20494;-38
2021/04/06 11:46:00;;;;;;;6.10;1.58;;;4.40;65.60;;;;;;5115017;27;20023;-38
2021/04/06 11:48:26;;;;;;;2.58;1.05;;;3.50;76.70;;;;;;5114404;28;20027;-37
2021/04/06 11:50:52;;;;;;;3.20;1.60;;;2.80;80.70;;;;;;5114773;28;20035;-37
2021/04/06 11:53:18;;;;;;;3.83;1.75;;;2.40;83.30;;;;;;5113721;28;20054;-36
2021/04/06 11:55:44;;;;;;;1.98;1.08;;;3.10;82.70;;;;;;5114045;28;20444;-36
2021/04/06 11:58:10;;;;;;;1.55;1.05;;;4.00;79.50;;;;;;5114066;28;20088;-41
2021/04/06 12:00:37;;;;;;;2.97;1.05;;;5.10;76.80;;;;;;5113064;28;20020;-37
2021/04/06 12:03:03;;;;;;;5.28;1.45;;;6.10;71.50;;;;;;5095913;28;20040;-37
2021/04/06 12:05:28;;;;;;;1.65;0.90;;;6.00;70.20;;;;;;5114331;28;20019;-37
2021/04/06 12:07:54;;;;;;;2.10;1.02;;;6.10;69.10;;;;;;5113975;28;20327;-37
2021/04/06 12:10:20;;;;;;;1.55;1.08;;;6.50;65.20;;;;;;5114398;28;20499;-38
2021/04/06 12:12:47;;;;;;;5.57;1.15;;;7.00;63.50;;;;;;5114298;28;20027;-37
2021/04/06 12:15:13;;;;;;;4.43;1.45;;;7.40;61.80;;;;;;5113916;28;20081;-37
2021/04/06 12:17:39;;;;;;;4.68;1.27;;;7.10;64.20;;;;;;5113967;28;20051;-37
2021/04/06 12:20:05;;;;;;;1.58;1.05;;;7.90;58.50;;;;;;5114571;28;20055;-38
2021/04/06 12:22:31;;;;;;;3.92;0.85;;;7.80;60.00;;;;;;5114017;28;20019;-36
2021/04/06 12:24:56;;;;;;;2.33;0.88;;;7.00;60.00;;;;;;5114170;28;20024;-37
2021/04/06 12:27:22;;;;;;;2.05;1.00;;;7.80;57.20;;;;;;5113985;28;20539;-37
2021/04/06 12:29:48;;;;;;;4.25;1.75;;;8.30;54.90;;;;;;5114252;28;20528;-44
2021/04/06 12:32:13;;;;;;;1.60;1.13;;;8.30;54.10;;;;;;5114119;28;20023;-38
2021/04/06 12:34:41;;;;;;;1.75;1.13;;;7.30;54.20;;;;;;5112760;28;20404;-39
2021/04/06 12:37:07;;;;;;;3.22;1.73;;;6.40;55.20;;;;;;5112287;28;20020;-38
2021/04/06 12:39:33;;;;;;;1.08;0.63;;;6.40;57.80;;;;;;5112504;28;20038;-38
2021/04/06 12:41:59;;;;;;;1.08;0.45;;;6.20;57.90;;;;;;5112361;28;20016;-38
2021/04/06 12:44:25;;;;;;;5.15;1.38;;;5.90;57.20;;;;;;5113596;28;20034;-37
2021/04/06 12:46:51;;;;;;;6.53;0.90;;;5.50;58.80;;;;;;5113720;28;20099;-37
2021/04/06 12:49:16;;;;;;;2.33;1.33;;;4.90;60.00;;;;;;5113311;28;20356;-37
2021/04/06 12:51:42;;;;;;;6.75;2.53;;;4.80;62.20;;;;;;5113626;28;20116;-37
2021/04/06 12:54:08;;;;;;;2.60;1.33;;;4.50;64.90;;;;;;5112764;28;20039;-37
2021/04/06 12:56:33;;;;;;;9.98;1.25;;;4.20;67.70;;;;;;5113542;28;20024;-38
2021/04/06 12:58:59;;;;;;;5.75;1.55;;;4.30;67.70;;;;;;5112800;28;20024;-38
2021/04/06 13:01:25;;;;;;;1.00;0.90;;;4.40;68.10;;;;;;5113441;28;20016;-37
2021/04/06 13:03:50;;;;;;;1.02;0.60;;;5.20;66.00;;;;;;5111337;28;20041;-37
2021/04/06 13:06:16;;;;;;;2.10;1.13;;;5.80;64.00;;;;;;5112764;28;20405;-37
2021/04/06 13:08:42;;;;;;;1.42;1.17;;;6.30;61.50;;;;;;5111645;28;20032;-37